sensor_id;sensor_type;location;lat;lon;timestamp;temperature;humidity
2409;DHT22;8463;48.094;7.970;2022-12-07T00:01:06;3.80;58.40
2409;DHT22;8463;48.094;7.970;2022-12-07T00:03:33;3.80;59.10
2409;DHT22;8463;48.094;7.970;2022-12-07T00:06:00;3.70;59.40
2409;DHT22;8463;48.094;7.970;2022-12-07T00:08:25;3.70;59.20
2409;DHT22;8463;48.094;7.970;2022-12-07T00:10:51;3.70;59.80
2409;DHT22;8463;48.094;7.970;2022-12-07T00:13:17;3.70;59.90
2409;DHT22;8463;48.094;7.970;2022-12-07T00:15:42;3.70;59.90
2409;DHT22;8463;48.094;7.970;2022-12-07T00:18:08;3.80;60.30
2409;DHT22;8463;48.094;7.970;2022-12-07T00:20:34;3.70;59.70
2409;DHT22;8463;48.094;7.970;2022-12-07T00:22:59;3.70;59.70
2409;DHT22;8463;48.094;7.970;2022-12-07T00:25:27;3.60;60.00
2409;DHT22;8463;48.094;7.970;2022-12-07T00:27:53;3.70;60.80
2409;DHT22;8463;48.094;7.970;2022-12-07T00:30:22;3.80;60.50
2409;DHT22;8463;48.094;7.970;2022-12-07T00:32:48;3.80;59.30
2409;DHT22;8463;48.094;7.970;2022-12-07T00:35:14;3.80;58.90
2409;DHT22;8463;48.094;7.970;2022-12-07T00:37:39;3.80;58.50
2409;DHT22;8463;48.094;7.970;2022-12-07T00:40:06;3.80;58.60
2409;DHT22;8463;48.094;7.970;2022-12-07T00:42:32;3.90;58.60
2409;DHT22;8463;48.094;7.970;2022-12-07T00:44:57;4.00;58.70
2409;DHT22;8463;48.094;7.970;2022-12-07T00:47:23;4.00;59.20
2409;DHT22;8463;48.094;7.970;2022-12-07T00:49:48;4.00;57.80
2409;DHT22;8463;48.094;7.970;2022-12-07T00:52:14;4.10;57.90
2409;DHT22;8463;48.094;7.970;2022-12-07T00:54:42;4.20;58.30
2409;DHT22;8463;48.094;7.970;2022-12-07T00:57:09;4.20;58.10
2409;DHT22;8463;48.094;7.970;2022-12-07T00:59:35;4.30;58.50
2409;DHT22;8463;48.094;7.970;2022-12-07T01:02:00;4.30;56.30
2409;DHT22;8463;48.094;7.970;2022-12-07T01:04:26;4.20;56.10
2409;DHT22;8463;48.094;7.970;2022-12-07T01:06:55;4.20;56.10
2409;DHT22;8463;48.094;7.970;2022-12-07T01:09:20;4.20;56.20
2409;DHT22;8463;48.094;7.970;2022-12-07T01:11:46;4.20;56.10
2409;DHT22;8463;48.094;7.970;2022-12-07T01:14:11;4.30;56.20
2409;DHT22;8463;48.094;7.970;2022-12-07T01:16:38;4.30;56.30
2409;DHT22;8463;48.094;7.970;2022-12-07T01:19:04;4.30;56.20
2409;DHT22;8463;48.094;7.970;2022-12-07T01:21:34;4.30;56.20
2409;DHT22;8463;48.094;7.970;2022-12-07T01:24:02;4.40;55.80
2409;DHT22;8463;48.094;7.970;2022-12-07T01:26:28;4.30;55.10
2409;DHT22;8463;48.094;7.970;2022-12-07T01:28:56;4.30;55.10
2409;DHT22;8463;48.094;7.970;2022-12-07T01:31:25;4.20;55.10
2409;DHT22;8463;48.094;7.970;2022-12-07T01:33:56;4.10;55.90
2409;DHT22;8463;48.094;7.970;2022-12-07T01:38:54;4.00;57.20
2409;DHT22;8463;48.094;7.970;2022-12-07T01:41:22;4.00;57.90
2409;DHT22;8463;48.094;7.970;2022-12-07T01:46:50;4.10;57.70
2409;DHT22;8463;48.094;7.970;2022-12-07T01:49:21;4.20;57.30
2409;DHT22;8463;48.094;7.970;2022-12-07T01:51:52;4.10;57.30
2409;DHT22;8463;48.094;7.970;2022-12-07T01:54:20;4.10;57.40
2409;DHT22;8463;48.094;7.970;2022-12-07T01:56:52;4.00;58.20
2409;DHT22;8463;48.094;7.970;2022-12-07T01:59:21;3.90;58.80
2409;DHT22;8463;48.094;7.970;2022-12-07T02:01:47;3.80;59.00
2409;DHT22;8463;48.094;7.970;2022-12-07T02:04:13;3.80;60.00
2409;DHT22;8463;48.094;7.970;2022-12-07T02:06:43;3.80;60.40
2409;DHT22;8463;48.094;7.970;2022-12-07T02:09:09;3.80;60.40
2409;DHT22;8463;48.094;7.970;2022-12-07T02:11:35;3.70;60.80
2409;DHT22;8463;48.094;7.970;2022-12-07T02:14:01;3.70;61.00
2409;DHT22;8463;48.094;7.970;2022-12-07T02:34:41;3.70;62.60
2409;DHT22;8463;48.094;7.970;2022-12-07T02:45:33;3.70;63.70
2409;DHT22;8463;48.094;7.970;2022-12-07T02:48:00;3.70;63.70
2409;DHT22;8463;48.094;7.970;2022-12-07T02:50:28;3.60;64.70
2409;DHT22;8463;48.094;7.970;2022-12-07T02:52:54;3.60;65.50
2409;DHT22;8463;48.094;7.970;2022-12-07T02:55:23;3.60;65.80
2409;DHT22;8463;48.094;7.970;2022-12-07T03:00:48;3.50;66.40
2409;DHT22;8463;48.094;7.970;2022-12-07T03:03:17;3.50;66.80
2409;DHT22;8463;48.094;7.970;2022-12-07T03:06:10;3.50;66.80
2409;DHT22;8463;48.094;7.970;2022-12-07T03:11:55;3.50;67.00
2409;DHT22;8463;48.094;7.970;2022-12-07T03:14:24;3.60;67.40
2409;DHT22;8463;48.094;7.970;2022-12-07T03:17:02;3.70;67.20
2409;DHT22;8463;48.094;7.970;2022-12-07T03:19:31;3.70;67.40
2409;DHT22;8463;48.094;7.970;2022-12-07T03:22:11;3.70;67.40
2409;DHT22;8463;48.094;7.970;2022-12-07T03:24:45;3.80;67.50
2409;DHT22;8463;48.094;7.970;2022-12-07T03:27:25;3.90;67.40
2409;DHT22;8463;48.094;7.970;2022-12-07T03:32:49;3.80;67.00
2409;DHT22;8463;48.094;7.970;2022-12-07T03:35:27;3.80;67.20
2409;DHT22;8463;48.094;7.970;2022-12-07T03:38:02;3.90;67.40
2409;DHT22;8463;48.094;7.970;2022-12-07T03:40:48;3.90;67.00
2409;DHT22;8463;48.094;7.970;2022-12-07T03:43:20;3.90;65.90
2409;DHT22;8463;48.094;7.970;2022-12-07T03:51:28;3.80;64.50
2409;DHT22;8463;48.094;7.970;2022-12-07T03:56:36;3.90;65.00
2409;DHT22;8463;48.094;7.970;2022-12-07T03:59:03;3.90;63.90
2409;DHT22;8463;48.094;7.970;2022-12-07T04:01:28;3.90;63.90
2409;DHT22;8463;48.094;7.970;2022-12-07T04:03:54;4.00;64.00
2409;DHT22;8463;48.094;7.970;2022-12-07T04:06:20;4.00;64.00
2409;DHT22;8463;48.094;7.970;2022-12-07T04:08:45;4.10;64.00
2409;DHT22;8463;48.094;7.970;2022-12-07T04:11:11;4.10;64.00
2409;DHT22;8463;48.094;7.970;2022-12-07T04:13:36;4.10;64.00
2409;DHT22;8463;48.094;7.970;2022-12-07T04:16:22;4.10;64.00
2409;DHT22;8463;48.094;7.970;2022-12-07T04:18:47;4.20;64.10
2409;DHT22;8463;48.094;7.970;2022-12-07T04:21:13;4.20;64.10
2409;DHT22;8463;48.094;7.970;2022-12-07T04:23:39;4.20;63.50
2409;DHT22;8463;48.094;7.970;2022-12-07T04:26:04;4.20;63.10
2409;DHT22;8463;48.094;7.970;2022-12-07T04:28:30;4.10;62.30
2409;DHT22;8463;48.094;7.970;2022-12-07T04:30:55;3.90;62.80
2409;DHT22;8463;48.094;7.970;2022-12-07T04:33:21;3.90;63.90
2409;DHT22;8463;48.094;7.970;2022-12-07T04:35:46;4.30;64.70
2409;DHT22;8463;48.094;7.970;2022-12-07T04:38:12;3.90;64.60
2409;DHT22;8463;48.094;7.970;2022-12-07T04:40:40;3.90;64.50
2409;DHT22;8463;48.094;7.970;2022-12-07T04:43:08;3.90;64.30
2409;DHT22;8463;48.094;7.970;2022-12-07T04:45:33;3.90;64.10
2409;DHT22;8463;48.094;7.970;2022-12-07T04:47:59;3.90;63.90
2409;DHT22;8463;48.094;7.970;2022-12-07T04:50:24;4.00;64.00
2409;DHT22;8463;48.094;7.970;2022-12-07T04:52:52;4.00;64.00
2409;DHT22;8463;48.094;7.970;2022-12-07T04:55:18;4.00;64.00
2409;DHT22;8463;48.094;7.970;2022-12-07T04:57:44;4.10;64.00
2409;DHT22;8463;48.094;7.970;2022-12-07T05:00:10;4.10;64.10
2409;DHT22;8463;48.094;7.970;2022-12-07T05:02:35;4.10;63.90
2409;DHT22;8463;48.094;7.970;2022-12-07T05:05:03;4.10;63.50
2409;DHT22;8463;48.094;7.970;2022-12-07T05:07:29;4.10;63.40
2409;DHT22;8463;48.094;7.970;2022-12-07T05:09:54;4.10;63.30
2409;DHT22;8463;48.094;7.970;2022-12-07T05:12:20;4.10;63.50
2409;DHT22;8463;48.094;7.970;2022-12-07T05:14:45;4.20;63.40
2409;DHT22;8463;48.094;7.970;2022-12-07T05:17:11;4.20;63.30
2409;DHT22;8463;48.094;7.970;2022-12-07T05:19:37;4.20;63.20
2409;DHT22;8463;48.094;7.970;2022-12-07T05:22:02;4.20;63.10
2409;DHT22;8463;48.094;7.970;2022-12-07T05:24:28;4.20;62.90
2409;DHT22;8463;48.094;7.970;2022-12-07T05:26:54;4.20;62.60
2409;DHT22;8463;48.094;7.970;2022-12-07T05:29:19;4.10;62.40
2409;DHT22;8463;48.094;7.970;2022-12-07T05:31:45;4.10;62.40
2409;DHT22;8463;48.094;7.970;2022-12-07T05:34:12;4.10;62.50
2409;DHT22;8463;48.094;7.970;2022-12-07T05:36:38;4.10;62.70
2409;DHT22;8463;48.094;7.970;2022-12-07T05:39:04;4.10;62.50
2409;DHT22;8463;48.094;7.970;2022-12-07T05:41:30;4.00;61.90
2409;DHT22;8463;48.094;7.970;2022-12-07T05:44:14;4.00;61.30
2409;DHT22;8463;48.094;7.970;2022-12-07T05:46:39;3.80;60.60
2409;DHT22;8463;48.094;7.970;2022-12-07T05:49:05;3.60;59.80
2409;DHT22;8463;48.094;7.970;2022-12-07T05:51:31;3.50;60.20
2409;DHT22;8463;48.094;7.970;2022-12-07T05:53:56;3.50;60.80
2409;DHT22;8463;48.094;7.970;2022-12-07T05:56:22;3.50;60.90
2409;DHT22;8463;48.094;7.970;2022-12-07T05:58:48;3.50;60.50
2409;DHT22;8463;48.094;7.970;2022-12-07T06:01:32;3.50;59.50
2409;DHT22;8463;48.094;7.970;2022-12-07T06:03:58;3.50;59.20
2409;DHT22;8463;48.094;7.970;2022-12-07T06:06:23;3.50;59.10
2409;DHT22;8463;48.094;7.970;2022-12-07T06:08:49;3.30;57.90
2409;DHT22;8463;48.094;7.970;2022-12-07T06:11:14;3.30;57.90
2409;DHT22;8463;48.094;7.970;2022-12-07T06:13:58;3.00;55.90
2409;DHT22;8463;48.094;7.970;2022-12-07T06:16:24;2.80;57.30
2409;DHT22;8463;48.094;7.970;2022-12-07T06:18:49;2.70;57.10
2409;DHT22;8463;48.094;7.970;2022-12-07T06:21:15;2.60;56.80
2409;DHT22;8463;48.094;7.970;2022-12-07T06:23:41;2.60;54.70
2409;DHT22;8463;48.094;7.970;2022-12-07T06:26:07;2.70;54.80
2409;DHT22;8463;48.094;7.970;2022-12-07T06:28:32;2.70;54.80
2409;DHT22;8463;48.094;7.970;2022-12-07T06:30:59;2.80;54.90
2409;DHT22;8463;48.094;7.970;2022-12-07T06:33:26;2.90;55.90
2409;DHT22;8463;48.094;7.970;2022-12-07T06:35:52;3.00;56.80
2409;DHT22;8463;48.094;7.970;2022-12-07T06:38:17;3.00;56.70
2409;DHT22;8463;48.094;7.970;2022-12-07T06:40:43;3.10;57.70
2409;DHT22;8463;48.094;7.970;2022-12-07T06:43:09;3.10;56.80
2409;DHT22;8463;48.094;7.970;2022-12-07T06:45:34;3.10;56.90
2409;DHT22;8463;48.094;7.970;2022-12-07T06:48:00;3.10;56.40
2409;DHT22;8463;48.094;7.970;2022-12-07T06:50:26;3.00;55.10
2409;DHT22;8463;48.094;7.970;2022-12-07T06:52:52;3.30;66.10
2409;DHT22;8463;48.094;7.970;2022-12-07T06:55:18;4.00;67.70
2409;DHT22;8463;48.094;7.970;2022-12-07T06:57:43;4.00;66.70
2409;DHT22;8463;48.094;7.970;2022-12-07T07:00:12;3.70;62.90
2409;DHT22;8463;48.094;7.970;2022-12-07T07:02:37;3.50;61.50
2409;DHT22;8463;48.094;7.970;2022-12-07T07:05:06;3.30;59.10
2409;DHT22;8463;48.094;7.970;2022-12-07T07:07:34;3.20;57.60
2409;DHT22;8463;48.094;7.970;2022-12-07T07:09:59;3.10;56.80
2409;DHT22;8463;48.094;7.970;2022-12-07T07:12:25;3.00;54.60
2409;DHT22;8463;48.094;7.970;2022-12-07T07:14:50;2.80;52.20
2409;DHT22;8463;48.094;7.970;2022-12-07T07:17:16;2.70;52.70
2409;DHT22;8463;48.094;7.970;2022-12-07T07:19:42;2.70;53.80
2409;DHT22;8463;48.094;7.970;2022-12-07T07:22:07;2.50;52.50
2409;DHT22;8463;48.094;7.970;2022-12-07T07:24:33;2.40;54.30
2409;DHT22;8463;48.094;7.970;2022-12-07T07:26:58;2.30;53.50
2409;DHT22;8463;48.094;7.970;2022-12-07T07:29:24;2.30;52.80
2409;DHT22;8463;48.094;7.970;2022-12-07T07:31:52;2.30;53.90
2409;DHT22;8463;48.094;7.970;2022-12-07T07:34:17;2.30;54.00
2409;DHT22;8463;48.094;7.970;2022-12-07T07:36:44;2.40;53.50
2409;DHT22;8463;48.094;7.970;2022-12-07T07:39:10;2.40;53.20
2409;DHT22;8463;48.094;7.970;2022-12-07T07:41:37;2.40;53.10
2409;DHT22;8463;48.094;7.970;2022-12-07T07:44:03;2.40;53.60
2409;DHT22;8463;48.094;7.970;2022-12-07T07:46:29;2.40;54.20
2409;DHT22;8463;48.094;7.970;2022-12-07T07:48:55;2.50;53.40
2409;DHT22;8463;48.094;7.970;2022-12-07T07:51:21;2.50;52.70
2409;DHT22;8463;48.094;7.970;2022-12-07T07:53:46;2.50;51.80
2409;DHT22;8463;48.094;7.970;2022-12-07T07:56:12;2.20;50.50
2409;DHT22;8463;48.094;7.970;2022-12-07T07:58:37;2.20;52.20
2409;DHT22;8463;48.094;7.970;2022-12-07T08:01:06;2.10;53.10
2409;DHT22;8463;48.094;7.970;2022-12-07T08:03:31;2.00;51.60
2409;DHT22;8463;48.094;7.970;2022-12-07T08:05:57;2.00;52.90
2409;DHT22;8463;48.094;7.970;2022-12-07T08:08:23;2.00;53.40
2409;DHT22;8463;48.094;7.970;2022-12-07T08:10:48;2.00;53.60
2409;DHT22;8463;48.094;7.970;2022-12-07T08:13:16;2.10;54.30
2409;DHT22;8463;48.094;7.970;2022-12-07T08:15:46;2.20;54.40
2409;DHT22;8463;48.094;7.970;2022-12-07T08:18:14;2.40;54.50
2409;DHT22;8463;48.094;7.970;2022-12-07T08:20:40;2.50;54.60
2409;DHT22;8463;48.094;7.970;2022-12-07T08:23:07;2.60;54.70
2409;DHT22;8463;48.094;7.970;2022-12-07T08:25:33;2.70;54.80
2409;DHT22;8463;48.094;7.970;2022-12-07T08:28:00;2.80;54.00
2409;DHT22;8463;48.094;7.970;2022-12-07T08:30:26;2.90;52.70
2409;DHT22;8463;48.094;7.970;2022-12-07T08:32:51;2.90;52.50
2409;DHT22;8463;48.094;7.970;2022-12-07T08:35:18;3.00;52.30
2409;DHT22;8463;48.094;7.970;2022-12-07T08:37:43;3.00;51.30
2409;DHT22;8463;48.094;7.970;2022-12-07T08:40:11;3.00;50.40
2409;DHT22;8463;48.094;7.970;2022-12-07T08:42:41;3.00;50.90
2409;DHT22;8463;48.094;7.970;2022-12-07T08:45:08;3.10;51.50
2409;DHT22;8463;48.094;7.970;2022-12-07T08:47:48;3.10;51.40
2409;DHT22;8463;48.094;7.970;2022-12-07T08:50:17;3.10;51.60
2409;DHT22;8463;48.094;7.970;2022-12-07T08:52:43;3.20;51.80
2409;DHT22;8463;48.094;7.970;2022-12-07T08:55:12;3.20;51.00
2409;DHT22;8463;48.094;7.970;2022-12-07T08:57:39;3.20;51.60
2409;DHT22;8463;48.094;7.970;2022-12-07T09:00:05;3.30;51.50
2409;DHT22;8463;48.094;7.970;2022-12-07T09:02:32;3.40;51.00
2409;DHT22;8463;48.094;7.970;2022-12-07T09:04:58;3.50;51.10
2409;DHT22;8463;48.094;7.970;2022-12-07T09:07:24;3.80;50.60
2409;DHT22;8463;48.094;7.970;2022-12-07T09:09:50;3.90;49.00
2409;DHT22;8463;48.094;7.970;2022-12-07T09:12:16;4.10;47.50
2409;DHT22;8463;48.094;7.970;2022-12-07T09:14:41;4.20;46.50
2409;DHT22;8463;48.094;7.970;2022-12-07T09:17:11;4.30;46.30
2409;DHT22;8463;48.094;7.970;2022-12-07T09:19:37;4.40;44.40
2409;DHT22;8463;48.094;7.970;2022-12-07T09:22:04;4.60;44.60
2409;DHT22;8463;48.094;7.970;2022-12-07T09:24:31;4.90;43.20
2409;DHT22;8463;48.094;7.970;2022-12-07T09:26:57;5.00;39.30
2409;DHT22;8463;48.094;7.970;2022-12-07T09:29:23;5.20;40.00
2409;DHT22;8463;48.094;7.970;2022-12-07T09:31:48;5.50;39.40
2409;DHT22;8463;48.094;7.970;2022-12-07T09:34:14;5.50;36.10
2409;DHT22;8463;48.094;7.970;2022-12-07T09:36:40;5.60;36.90
2409;DHT22;8463;48.094;7.970;2022-12-07T09:39:06;5.70;36.70
2409;DHT22;8463;48.094;7.970;2022-12-07T09:41:32;5.90;36.40
2409;DHT22;8463;48.094;7.970;2022-12-07T09:44:09;6.00;34.80
2409;DHT22;8463;48.094;7.970;2022-12-07T09:46:37;6.20;33.90
2409;DHT22;8463;48.094;7.970;2022-12-07T09:49:04;6.30;31.30
2409;DHT22;8463;48.094;7.970;2022-12-07T09:51:31;6.30;30.70
2409;DHT22;8463;48.094;7.970;2022-12-07T09:53:58;6.50;31.10
2409;DHT22;8463;48.094;7.970;2022-12-07T09:56:25;6.80;29.70
2409;DHT22;8463;48.094;7.970;2022-12-07T09:58:58;6.80;30.20
2409;DHT22;8463;48.094;7.970;2022-12-07T10:01:24;7.10;30.40
2409;DHT22;8463;48.094;7.970;2022-12-07T10:03:55;7.30;29.20
2409;DHT22;8463;48.094;7.970;2022-12-07T10:06:23;7.40;26.50
2409;DHT22;8463;48.094;7.970;2022-12-07T10:08:49;7.50;25.50
2409;DHT22;8463;48.094;7.970;2022-12-07T10:11:16;7.60;25.90
2409;DHT22;8463;48.094;7.970;2022-12-07T10:13:49;7.50;25.70
2409;DHT22;8463;48.094;7.970;2022-12-07T10:18:50;7.40;24.90
2409;DHT22;8463;48.094;7.970;2022-12-07T10:21:26;7.30;22.70
2409;DHT22;8463;48.094;7.970;2022-12-07T10:24:12;6.90;24.30
2409;DHT22;8463;48.094;7.970;2022-12-07T10:29:32;6.80;26.50
2409;DHT22;8463;48.094;7.970;2022-12-07T10:34:50;7.30;23.90
2409;DHT22;8463;48.094;7.970;2022-12-07T10:37:19;7.40;22.90
2409;DHT22;8463;48.094;7.970;2022-12-07T10:39:56;7.50;23.20
2409;DHT22;8463;48.094;7.970;2022-12-07T10:42:23;7.60;22.30
2409;DHT22;8463;48.094;7.970;2022-12-07T10:44:50;7.80;23.50
2409;DHT22;8463;48.094;7.970;2022-12-07T10:58:55;9.10;8.30
2409;DHT22;8463;48.094;7.970;2022-12-07T11:01:49;9.00;8.40
2409;DHT22;8463;48.094;7.970;2022-12-07T11:06:59;9.10;5.00
2409;DHT22;8463;48.094;7.970;2022-12-07T11:09:43;9.10;2.70
2409;DHT22;8463;48.094;7.970;2022-12-07T11:14:58;8.90;1.70
2409;DHT22;8463;48.094;7.970;2022-12-07T11:17:53;8.90;1.00
2409;DHT22;8463;48.094;7.970;2022-12-07T11:20:34;9.00;1.00
2409;DHT22;8463;48.094;7.970;2022-12-07T11:30:43;9.00;1.00
2409;DHT22;8463;48.094;7.970;2022-12-07T11:38:44;8.60;1.00
2409;DHT22;8463;48.094;7.970;2022-12-07T11:41:12;8.50;1.00
2409;DHT22;8463;48.094;7.970;2022-12-07T11:44:04;8.40;1.70
2409;DHT22;8463;48.094;7.970;2022-12-07T11:47:07;8.30;2.00
2409;DHT22;8463;48.094;7.970;2022-12-07T11:49:56;8.30;3.30
2409;DHT22;8463;48.094;7.970;2022-12-07T11:52:42;8.20;3.20
2409;DHT22;8463;48.094;7.970;2022-12-07T11:58:01;8.20;5.20
2409;DHT22;8463;48.094;7.970;2022-12-07T12:00:28;8.20;5.50
2409;DHT22;8463;48.094;7.970;2022-12-07T12:03:02;8.20;5.70
2409;DHT22;8463;48.094;7.970;2022-12-07T12:05:29;8.20;5.90
2409;DHT22;8463;48.094;7.970;2022-12-07T12:08:22;8.20;6.00
2409;DHT22;8463;48.094;7.970;2022-12-07T12:11:25;8.20;6.80
2409;DHT22;8463;48.094;7.970;2022-12-07T12:22:18;8.00;7.60
2409;DHT22;8463;48.094;7.970;2022-12-07T12:24:49;8.00;7.20
2409;DHT22;8463;48.094;7.970;2022-12-07T12:27:28;7.90;8.50
2409;DHT22;8463;48.094;7.970;2022-12-07T12:29:59;7.90;7.80
2409;DHT22;8463;48.094;7.970;2022-12-07T12:32:38;7.90;7.90
2409;DHT22;8463;48.094;7.970;2022-12-07T12:35:35;8.00;7.80
2409;DHT22;8463;48.094;7.970;2022-12-07T12:38:31;8.00;7.90
2409;DHT22;8463;48.094;7.970;2022-12-07T12:40:59;8.00;8.30
2409;DHT22;8463;48.094;7.970;2022-12-07T12:43:45;8.00;9.70
2409;DHT22;8463;48.094;7.970;2022-12-07T12:46:37;7.90;9.00
2409;DHT22;8463;48.094;7.970;2022-12-07T12:51:51;8.10;8.00
2409;DHT22;8463;48.094;7.970;2022-12-07T12:54:30;8.10;8.90
2409;DHT22;8463;48.094;7.970;2022-12-07T12:57:10;8.20;3.40
2409;DHT22;8463;48.094;7.970;2022-12-07T12:59:39;8.20;5.20
2409;DHT22;8463;48.094;7.970;2022-12-07T13:10:28;8.10;4.60
2409;DHT22;8463;48.094;7.970;2022-12-07T13:15:37;8.10;5.70
2409;DHT22;8463;48.094;7.970;2022-12-07T13:20:55;8.00;5.40
2409;DHT22;8463;48.094;7.970;2022-12-07T13:37:26;7.70;6.40
2409;DHT22;8463;48.094;7.970;2022-12-07T13:42:31;7.60;7.20
2409;DHT22;8463;48.094;7.970;2022-12-07T13:44:59;7.60;6.80
2409;DHT22;8463;48.094;7.970;2022-12-07T13:49:56;7.60;6.60
2409;DHT22;8463;48.094;7.970;2022-12-07T13:52:30;7.60;5.80
2409;DHT22;8463;48.094;7.970;2022-12-07T13:57:27;7.00;13.40
2409;DHT22;8463;48.094;7.970;2022-12-07T13:59:53;6.80;16.80
2409;DHT22;8463;48.094;7.970;2022-12-07T14:02:27;6.50;19.10
2409;DHT22;8463;48.094;7.970;2022-12-07T14:05:16;6.30;18.20
2409;DHT22;8463;48.094;7.970;2022-12-07T14:12:50;5.90;23.60
2409;DHT22;8463;48.094;7.970;2022-12-07T14:15:22;5.90;23.60
2409;DHT22;8463;48.094;7.970;2022-12-07T14:17:53;6.00;23.70
2409;DHT22;8463;48.094;7.970;2022-12-07T14:20:48;6.00;22.00
2409;DHT22;8463;48.094;7.970;2022-12-07T14:23:25;6.00;21.90
2409;DHT22;8463;48.094;7.970;2022-12-07T14:25:53;5.90;20.50
2409;DHT22;8463;48.094;7.970;2022-12-07T14:28:32;5.80;21.60
2409;DHT22;8463;48.094;7.970;2022-12-07T14:30:59;5.70;22.00
2409;DHT22;8463;48.094;7.970;2022-12-07T14:33:26;5.70;22.30
2409;DHT22;8463;48.094;7.970;2022-12-07T14:35:52;5.60;21.70
2409;DHT22;8463;48.094;7.970;2022-12-07T14:38:23;5.60;20.50
2409;DHT22;8463;48.094;7.970;2022-12-07T14:40:50;5.60;21.00
2409;DHT22;8463;48.094;7.970;2022-12-07T14:43:17;5.60;20.20
2409;DHT22;8463;48.094;7.970;2022-12-07T14:45:46;5.60;19.60
2409;DHT22;8463;48.094;7.970;2022-12-07T14:48:13;5.60;19.40
2409;DHT22;8463;48.094;7.970;2022-12-07T14:50:47;5.50;19.60
2409;DHT22;8463;48.094;7.970;2022-12-07T14:53:16;5.50;18.60
2409;DHT22;8463;48.094;7.970;2022-12-07T14:55:42;5.50;19.00
2409;DHT22;8463;48.094;7.970;2022-12-07T14:58:15;5.60;19.00
2409;DHT22;8463;48.094;7.970;2022-12-07T15:00:41;5.50;19.60
2409;DHT22;8463;48.094;7.970;2022-12-07T15:03:07;5.50;18.40
2409;DHT22;8463;48.094;7.970;2022-12-07T15:05:33;5.50;19.20
2409;DHT22;8463;48.094;7.970;2022-12-07T15:07:59;5.40;18.30
2409;DHT22;8463;48.094;7.970;2022-12-07T15:10:30;5.40;18.10
2409;DHT22;8463;48.094;7.970;2022-12-07T15:13:02;5.50;18.30
2409;DHT22;8463;48.094;7.970;2022-12-07T15:15:47;5.50;18.30
2409;DHT22;8463;48.094;7.970;2022-12-07T15:18:13;5.50;17.90
2409;DHT22;8463;48.094;7.970;2022-12-07T15:20:39;5.40;18.30
2409;DHT22;8463;48.094;7.970;2022-12-07T15:23:05;5.40;18.30
2409;DHT22;8463;48.094;7.970;2022-12-07T15:25:30;5.30;19.20
2409;DHT22;8463;48.094;7.970;2022-12-07T15:27:56;5.20;20.40
2409;DHT22;8463;48.094;7.970;2022-12-07T15:30:22;5.10;21.00
2409;DHT22;8463;48.094;7.970;2022-12-07T15:32:51;4.90;22.90
2409;DHT22;8463;48.094;7.970;2022-12-07T15:35:17;4.70;24.00
2409;DHT22;8463;48.094;7.970;2022-12-07T15:37:43;4.50;26.10
2409;DHT22;8463;48.094;7.970;2022-12-07T15:40:09;4.50;27.20
2409;DHT22;8463;48.094;7.970;2022-12-07T15:42:36;4.50;27.70
2409;DHT22;8463;48.094;7.970;2022-12-07T15:45:05;4.60;27.70
2409;DHT22;8463;48.094;7.970;2022-12-07T15:47:36;4.70;27.40
2409;DHT22;8463;48.094;7.970;2022-12-07T15:50:08;4.80;26.90
2409;DHT22;8463;48.094;7.970;2022-12-07T15:52:34;4.80;27.10
2409;DHT22;8463;48.094;7.970;2022-12-07T15:55:00;4.80;27.10
2409;DHT22;8463;48.094;7.970;2022-12-07T15:57:28;4.70;27.10
2409;DHT22;8463;48.094;7.970;2022-12-07T15:59:54;4.70;27.10
2409;DHT22;8463;48.094;7.970;2022-12-07T16:02:19;4.60;27.50
2409;DHT22;8463;48.094;7.970;2022-12-07T16:04:48;4.50;28.60
2409;DHT22;8463;48.094;7.970;2022-12-07T16:07:13;4.50;28.30
2409;DHT22;8463;48.094;7.970;2022-12-07T16:09:44;4.50;27.90
2409;DHT22;8463;48.094;7.970;2022-12-07T16:12:10;4.50;28.30
2409;DHT22;8463;48.094;7.970;2022-12-07T16:14:37;4.50;28.50
2409;DHT22;8463;48.094;7.970;2022-12-07T16:17:03;4.50;28.60
2409;DHT22;8463;48.094;7.970;2022-12-07T16:19:30;4.40;29.30
2409;DHT22;8463;48.094;7.970;2022-12-07T16:21:55;4.40;29.80
2409;DHT22;8463;48.094;7.970;2022-12-07T16:24:21;4.40;29.80
2409;DHT22;8463;48.094;7.970;2022-12-07T16:26:47;4.20;29.90
2409;DHT22;8463;48.094;7.970;2022-12-07T16:29:14;4.20;30.20
2409;DHT22;8463;48.094;7.970;2022-12-07T16:31:40;4.20;31.20
2409;DHT22;8463;48.094;7.970;2022-12-07T16:34:06;4.10;30.20
2409;DHT22;8463;48.094;7.970;2022-12-07T16:36:32;4.10;30.00
2409;DHT22;8463;48.094;7.970;2022-12-07T16:39:02;4.10;30.00
2409;DHT22;8463;48.094;7.970;2022-12-07T16:41:28;4.00;30.50
2409;DHT22;8463;48.094;7.970;2022-12-07T16:43:53;3.90;31.40
2409;DHT22;8463;48.094;7.970;2022-12-07T16:46:19;3.90;31.30
2409;DHT22;8463;48.094;7.970;2022-12-07T16:48:45;3.80;31.80
2409;DHT22;8463;48.094;7.970;2022-12-07T16:51:12;3.70;32.30
2409;DHT22;8463;48.094;7.970;2022-12-07T16:53:42;3.70;30.90
2409;DHT22;8463;48.094;7.970;2022-12-07T16:56:12;3.60;31.50
2409;DHT22;8463;48.094;7.970;2022-12-07T16:58:38;3.60;32.70
2409;DHT22;8463;48.094;7.970;2022-12-07T17:01:14;3.50;32.30
2409;DHT22;8463;48.094;7.970;2022-12-07T17:03:40;3.60;32.10
2409;DHT22;8463;48.094;7.970;2022-12-07T17:06:13;3.50;31.70
2409;DHT22;8463;48.094;7.970;2022-12-07T17:08:40;3.50;33.00
2409;DHT22;8463;48.094;7.970;2022-12-07T17:11:22;3.40;33.20
2409;DHT22;8463;48.094;7.970;2022-12-07T17:13:48;3.30;31.90
2409;DHT22;8463;48.094;7.970;2022-12-07T17:16:33;3.20;32.40
2409;DHT22;8463;48.094;7.970;2022-12-07T17:19:03;3.10;33.80
2409;DHT22;8463;48.094;7.970;2022-12-07T17:21:28;3.10;33.30
2409;DHT22;8463;48.094;7.970;2022-12-07T17:23:54;3.20;33.60
2409;DHT22;8463;48.094;7.970;2022-12-07T17:26:22;3.20;33.40
2409;DHT22;8463;48.094;7.970;2022-12-07T17:28:48;3.20;33.70
2409;DHT22;8463;48.094;7.970;2022-12-07T17:31:16;3.20;33.60
2409;DHT22;8463;48.094;7.970;2022-12-07T17:33:41;3.10;34.00
2409;DHT22;8463;48.094;7.970;2022-12-07T17:36:25;3.10;33.70
2409;DHT22;8463;48.094;7.970;2022-12-07T17:38:51;3.00;34.90
2409;DHT22;8463;48.094;7.970;2022-12-07T17:41:26;2.90;35.30
2409;DHT22;8463;48.094;7.970;2022-12-07T17:44:15;2.80;35.70
2409;DHT22;8463;48.094;7.970;2022-12-07T17:46:41;2.60;37.10
2409;DHT22;8463;48.094;7.970;2022-12-07T17:49:07;2.60;37.10
2409;DHT22;8463;48.094;7.970;2022-12-07T17:51:33;2.70;37.20
2409;DHT22;8463;48.094;7.970;2022-12-07T17:54:20;2.70;37.30
2409;DHT22;8463;48.094;7.970;2022-12-07T17:56:46;2.80;37.30
2409;DHT22;8463;48.094;7.970;2022-12-07T17:59:12;2.80;37.30
2409;DHT22;8463;48.094;7.970;2022-12-07T18:01:38;2.80;37.10
2409;DHT22;8463;48.094;7.970;2022-12-07T18:04:04;2.80;37.30
2409;DHT22;8463;48.094;7.970;2022-12-07T18:06:30;2.80;35.60
2409;DHT22;8463;48.094;7.970;2022-12-07T18:08:58;2.70;35.60
2409;DHT22;8463;48.094;7.970;2022-12-07T18:11:24;2.70;36.60
2409;DHT22;8463;48.094;7.970;2022-12-07T18:13:49;2.70;36.10
2409;DHT22;8463;48.094;7.970;2022-12-07T18:16:18;2.60;36.90
2409;DHT22;8463;48.094;7.970;2022-12-07T18:18:44;2.60;37.10
2409;DHT22;8463;48.094;7.970;2022-12-07T18:21:15;2.60;37.20
2409;DHT22;8463;48.094;7.970;2022-12-07T18:23:46;2.70;37.30
2409;DHT22;8463;48.094;7.970;2022-12-07T18:26:13;2.70;36.90
2409;DHT22;8463;48.094;7.970;2022-12-07T18:28:39;2.60;37.20
2409;DHT22;8463;48.094;7.970;2022-12-07T18:31:05;2.60;37.10
2409;DHT22;8463;48.094;7.970;2022-12-07T18:33:33;2.60;37.10
2409;DHT22;8463;48.094;7.970;2022-12-07T18:35:59;2.60;37.10
2409;DHT22;8463;48.094;7.970;2022-12-07T18:38:27;2.70;37.30
2409;DHT22;8463;48.094;7.970;2022-12-07T18:40:52;2.70;37.20
2409;DHT22;8463;48.094;7.970;2022-12-07T18:43:18;2.80;37.00
2409;DHT22;8463;48.094;7.970;2022-12-07T18:45:44;2.70;36.60
2409;DHT22;8463;48.094;7.970;2022-12-07T18:48:15;2.80;36.90
2409;DHT22;8463;48.094;7.970;2022-12-07T18:50:42;2.80;36.40
2409;DHT22;8463;48.094;7.970;2022-12-07T18:53:08;2.70;36.20